Terminal Aerodrome Forecast
Issued by NWS

Current Version | Previous Version | Text Only | Print | Product List | Glossary Off
Versions: 1 2 3 4 5 6 7 8 9 10 11 12 13 14 15 16 17

000
FTUS44 KOHX 211100
TAFCKV
TAF
KCKV 211125Z 2112/2212 00000KT 3SM BR SKC
     FM211400 34008G16KT P6SM FEW040
     FM220000 02003KT P6SM SKC=

USA.gov is the U.S. government's official web portal to all federal, state and local government web resources and services.